Time;durP1;ratioP1;P1;durP2;ratioP2;P2;SDS_P1;SDS_P2;PMS_P1;PMS_P2;Temp;Humidity;BMP_temperature;BMP_pressure;BME280_temperature;BME280_humidity;BME280_pressure;Samples;Min_cycle;Max_cycle;Signal;HPM_P1;HPM_P2
2023/06/07 00:02:06;;;;;;;;;;;;;;;;;;5054064;28;19915;-77
2023/06/07 00:04:32;;;;;;;;;;;;;;;;;;5054730;28;20070;-77
2023/06/07 00:07:00;;;;;;;;;;;;;;;;;;5054292;28;19909;-76
2023/06/07 00:09:26;;;;;;;;;;;;;;;;;;5054263;28;19912;-76
2023/06/07 00:11:51;;;;;;;;;;;;;;;;;;5054017;28;20364;-76
2023/06/07 00:14:16;;;;;;;;;;;;;;;;;;5052813;28;19967;-76
2023/06/07 00:16:44;;;;;;;;;;;;;;;;;;5054175;28;19908;-76
2023/06/07 00:19:11;;;;;;;;;;;;;;;;;;5051079;28;19975;-77
2023/06/07 00:21:36;;;;;;;;;;;;;;;;;;5054166;28;19918;-77
2023/06/07 00:24:01;;;;;;;;;;;;;;;;;;5053913;28;19991;-76
2023/06/07 00:26:27;;;;;;;;;;;;;;;;;;5052580;28;19931;-76
2023/06/07 00:28:52;;;;;;;;;;;;;;;;;;5052538;28;19912;-76
2023/06/07 00:31:18;;;;;;;;;;;;;;;;;;5053958;28;19909;-76
2023/06/07 00:33:43;;;;;;;;;;;;;;;;;;5052660;28;20303;-77
2023/06/07 00:36:08;;;;;;;;;;;;;;;;;;5053575;28;20372;-77
2023/06/07 00:38:34;;;;;;;;;;;;;;;;;;5053459;28;19920;-77
2023/06/07 00:41:00;;;;;;;;;;;;;;;;;;5053315;28;19912;-77
2023/06/07 00:43:25;;;;;;;;;;;;;;;;;;5052130;28;19917;-76
2023/06/07 00:45:50;;;;;;;;;;;;;;;;;;5035717;28;19909;-76
2023/06/07 00:48:16;;;;;;;;;;;;;;;;;;5053375;28;19926;-76
2023/06/07 00:50:41;;;;;;;;;;;;;;;;;;5053414;28;20331;-77
2023/06/07 00:53:06;;;;;;;;;;;;;;;;;;5051069;28;19916;-77
2023/06/07 00:55:32;;;;;;;;;;;;;;;;;;5052800;28;19908;-76
2023/06/07 00:57:57;;;;;;;;;;;;;;;;;;5053573;28;19928;-76
2023/06/07 01:00:23;;;;;;;;;;;;;;;;;;5053234;28;19917;-76
2023/06/07 01:02:51;;;;;;;;;;;;;;;;;;5052086;28;20371;-77
2023/06/07 01:05:17;;;;;;;;;;;;;;;;;;5052595;28;19912;-77
2023/06/07 01:07:42;;;;;;;;;;;;;;;;;;5054092;28;19923;-76
2023/06/07 01:10:08;;;;;;;;;;;;;;;;;;5053251;28;19962;-76
2023/06/07 01:12:34;;;;;;;;;;;;;;;;;;5051214;28;20297;-76
2023/06/07 01:14:59;;;;;;;;;;;;;;;;;;5052878;28;19909;-76
2023/06/07 01:17:26;;;;;;;;;;;;;;;;;;5052994;28;19923;-77
2023/06/07 01:19:53;;;;;;;;;;;;;;;;;;5058810;28;20439;-76
2023/06/07 01:22:18;;;;;;;;;;;;;;;;;;5046222;28;19991;-76
2023/06/07 01:24:43;;;;;;;;;;;;;;;;;;5052880;28;20000;-77
2023/06/07 01:27:10;;;;;;;;;;;;;;;;;;5053220;28;19919;-77
2023/06/07 01:29:35;;;;;;;;;;;;;;;;;;5052647;28;19916;-76
2023/06/07 01:32:02;;;;;;;;;;;;;;;;;;5052659;28;19916;-75
2023/06/07 01:34:27;;;;;;;;;;;;;;;;;;5058421;28;19920;-76
2023/06/07 01:36:53;;;;;;;;;;;;;;;;;;5056022;28;19966;-77
2023/06/07 01:39:20;;;;;;;;;;;;;;;;;;5059908;28;19908;-76
2023/06/07 01:41:45;;;;;;;;;;;;;;;;;;5034727;28;19917;-77
2023/06/07 01:44:10;;;;;;;;;;;;;;;;;;5052802;28;20372;-77
2023/06/07 01:46:36;;;;;;;;;;;;;;;;;;5050759;28;20010;-78
2023/06/07 01:49:01;;;;;;;;;;;;;;;;;;5055241;28;20386;-77
2023/06/07 01:51:27;;;;;;;;;;;;;;;;;;5055845;28;19913;-77
2023/06/07 01:53:53;;;;;;;;;;;;;;;;;;5052370;28;19909;-77
2023/06/07 01:56:18;;;;;;;;;;;;;;;;;;5052752;28;19924;-77
2023/06/07 01:58:44;;;;;;;;;;;;;;;;;;5034611;28;19913;-77
2023/06/07 02:01:09;;;;;;;;;;;;;;;;;;5045931;28;19940;-77
2023/06/07 02:03:36;;;;;;;;;;;;;;;;;;5049684;28;19909;-77
2023/06/07 02:06:01;;;;;;;;;;;;;;;;;;5055815;28;19921;-77
2023/06/07 02:08:27;;;;;;;;;;;;;;;;;;5049367;28;19908;-77
2023/06/07 02:10:52;;;;;;;;;;;;;;;;;;5050712;28;20349;-77
2023/06/07 02:13:20;;;;;;;;;;;;;;;;;;5051014;28;19931;-78
2023/06/07 02:15:47;;;;;;;;;;;;;;;;;;5052667;28;19913;-77
2023/06/07 02:18:12;;;;;;;;;;;;;;;;;;5060373;28;20050;-77
2023/06/07 02:20:38;;;;;;;;;;;;;;;;;;5051812;28;19970;-77
2023/06/07 02:23:03;;;;;;;;;;;;;;;;;;5033949;28;19909;-77
2023/06/07 02:25:28;;;;;;;;;;;;;;;;;;5051825;28;19920;-77
2023/06/07 02:27:53;;;;;;;;;;;;;;;;;;5053491;28;19909;-77
2023/06/07 02:30:19;;;;;;;;;;;;;;;;;;5068805;28;19913;-77
2023/06/07 02:32:53;;;;;;;;;;;;;;;;;;5033540;28;19912;-77
2023/06/07 02:35:18;;;;;;;;;;;;;;;;;;5051324;28;19918;-77
2023/06/07 02:37:44;;;;;;;;;;;;;;;;;;5051373;28;19917;-77
2023/06/07 02:40:10;;;;;;;;;;;;;;;;;;5064116;28;19924;-77
2023/06/07 02:42:36;;;;;;;;;;;;;;;;;;5045218;28;19912;-78
2023/06/07 02:45:02;;;;;;;;;;;;;;;;;;5067169;28;19916;-77
2023/06/07 02:47:28;;;;;;;;;;;;;;;;;;5051798;28;19939;-77
2023/06/07 02:49:53;;;;;;;;;;;;;;;;;;5066795;28;20379;-77
2023/06/07 02:52:18;;;;;;;;;;;;;;;;;;5050261;28;20004;-78
2023/06/07 02:54:44;;;;;;;;;;;;;;;;;;5051491;28;20342;-78
2023/06/07 02:57:09;;;;;;;;;;;;;;;;;;5058423;28;19953;-78
2023/06/07 02:59:34;;;;;;;;;;;;;;;;;;5066665;28;19962;-77
2023/06/07 03:02:00;;;;;;;;;;;;;;;;;;5050084;28;19913;-78
2023/06/07 03:04:28;;;;;;;;;;;;;;;;;;5033855;28;19913;-77
2023/06/07 03:06:57;;;;;;;;;;;;;;;;;;5049884;28;20011;-77
2023/06/07 03:09:31;;;;;;;;;;;;;;;;;;5030475;28;19986;-77
2023/06/07 03:11:56;;;;;;;;;;;;;;;;;;5044343;28;20691;-77
2023/06/07 03:14:25;;;;;;;;;;;;;;;;;;5060160;28;19964;-77
2023/06/07 03:16:52;;;;;;;;;;;;;;;;;;5046620;28;19944;-76
2023/06/07 03:19:17;;;;;;;;;;;;;;;;;;5055153;28;19974;-76
2023/06/07 03:21:44;;;;;;;;;;;;;;;;;;5053171;28;19920;-76
2023/06/07 03:24:10;;;;;;;;;;;;;;;;;;5054108;28;19965;-76
2023/06/07 03:26:36;;;;;;;;;;;;;;;;;;5053715;28;19912;-78
2023/06/07 03:29:02;;;;;;;;;;;;;;;;;;5044146;28;19908;-78
2023/06/07 03:31:32;;;;;;;;;;;;;;;;;;5057738;28;20416;-77
2023/06/07 03:34:01;;;;;;;;;;;;;;;;;;5053940;28;20288;-77
2023/06/07 03:36:28;;;;;;;;;;;;;;;;;;5054671;28;19919;-77
2023/06/07 03:38:55;;;;;;;;;;;;;;;;;;5053819;28;19919;-77
2023/06/07 03:41:20;;;;;;;;;;;;;;;;;;5053980;28;19916;-76
2023/06/07 03:43:45;;;;;;;;;;;;;;;;;;5053690;28;19908;-76
2023/06/07 03:46:11;;;;;;;;;;;;;;;;;;5053548;28;19919;-76
2023/06/07 03:48:37;;;;;;;;;;;;;;;;;;5070009;28;20049;-76
2023/06/07 03:51:03;;;;;;;;;;;;;;;;;;5069750;28;20275;-76
2023/06/07 03:53:28;;;;;;;;;;;;;;;;;;5036849;28;19915;-76
2023/06/07 03:55:53;;;;;;;;;;;;;;;;;;5069691;28;19912;-76
2023/06/07 03:58:23;;;;;;;;;;;;;;;;;;5054175;28;19909;-76
2023/06/07 04:00:48;;;;;;;;;;;;;;;;;;5053254;28;20046;-77
2023/06/07 04:03:14;;;;;;;;;;;;;;;;;;5069932;28;19935;-76
2023/06/07 04:05:40;;;;;;;;;;;;;;;;;;5069832;28;20011;-76
2023/06/07 04:08:06;;;;;;;;;;;;;;;;;;5075549;28;19999;-76
2023/06/07 04:10:31;;;;;;;;;;;;;;;;;;5055439;28;20347;-76
2023/06/07 04:12:57;;;;;;;;;;;;;;;;;;5069730;28;20279;-76
2023/06/07 04:15:22;;;;;;;;;;;;;;;;;;5061055;28;19963;-76
2023/06/07 04:17:48;;;;;;;;;;;;;;;;;;5069297;28;19927;-77
2023/06/07 04:20:15;;;;;;;;;;;;;;;;;;5064865;28;19931;-76
2023/06/07 04:22:42;;;;;;;;;;;;;;;;;;5069511;28;19908;-77
2023/06/07 04:25:08;;;;;;;;;;;;;;;;;;5053090;28;19919;-78
2023/06/07 04:27:34;;;;;;;;;;;;;;;;;;5036720;28;19909;-77
2023/06/07 04:30:02;;;;;;;;;;;;;;;;;;5049348;28;20066;-76
2023/06/07 04:32:28;;;;;;;;;;;;;;;;;;5060082;28;19956;-77
2023/06/07 04:34:55;;;;;;;;;;;;;;;;;;5034907;28;20386;-77
2023/06/07 04:37:24;;;;;;;;;;;;;;;;;;5053913;28;19916;-75
2023/06/07 04:39:51;;;;;;;;;;;;;;;;;;5034683;28;19917;-77
2023/06/07 04:42:17;;;;;;;;;;;;;;;;;;5065487;28;19955;-76
2023/06/07 04:44:42;;;;;;;;;;;;;;;;;;5053491;28;20577;-77
2023/06/07 04:47:13;;;;;;;;;;;;;;;;;;5053619;28;19947;-77
2023/06/07 04:49:40;;;;;;;;;;;;;;;;;;5052393;28;19916;-76
2023/06/07 04:52:06;;;;;;;;;;;;;;;;;;5036341;28;20393;-78
2023/06/07 04:54:32;;;;;;;;;;;;;;;;;;5052703;28;20379;-78
2023/06/07 04:56:57;;;;;;;;;;;;;;;;;;5054472;28;19917;-81
2023/06/07 04:59:25;;;;;;;;;;;;;;;;;;5067052;28;19917;-81
2023/06/07 05:01:50;;;;;;;;;;;;;;;;;;5062273;28;19924;-82
2023/06/07 05:04:19;;;;;;;;;;;;;;;;;;5063180;28;19940;-78
2023/06/07 05:06:58;;;;;;;;;;;;;;;;;;5068115;28;19909;-79
2023/06/07 05:09:25;;;;;;;;;;;;;;;;;;5061932;28;20047;-81
2023/06/07 05:11:50;;;;;;;;;;;;;;;;;;5044234;28;20300;-80
2023/06/07 05:14:16;;;;;;;;;;;;;;;;;;5067859;28;20345;-81
2023/06/07 05:16:43;;;;;;;;;;;;;;;;;;5052733;28;19909;-81
2023/06/07 05:19:10;;;;;;;;;;;;;;;;;;5050076;28;19928;-79
2023/06/07 05:21:37;;;;;;;;;;;;;;;;;;5050764;28;19943;-82
2023/06/07 05:24:04;;;;;;;;;;;;;;;;;;5067522;28;19916;-79
2023/06/07 05:26:29;;;;;;;;;;;;;;;;;;5033958;28;19958;-79
2023/06/07 05:28:55;;;;;;;;;;;;;;;;;;5051516;28;19916;-79
2023/06/07 05:31:22;;;;;;;;;;;;;;;;;;5051186;28;19963;-80
2023/06/07 05:33:48;;;;;;;;;;;;;;;;;;5054678;28;19919;-80
2023/06/07 05:36:14;;;;;;;;;;;;;;;;;;5067376;28;19916;-80
2023/06/07 05:38:40;;;;;;;;;;;;;;;;;;5049967;28;19913;-80
2023/06/07 05:41:05;;;;;;;;;;;;;;;;;;5051332;28;20010;-80
2023/06/07 05:43:31;;;;;;;;;;;;;;;;;;5051010;28;19913;-80
2023/06/07 05:45:56;;;;;;;;;;;;;;;;;;5033961;28;20039;-80
2023/06/07 05:48:22;;;;;;;;;;;;;;;;;;5067003;28;19912;-82
2023/06/07 05:50:47;;;;;;;;;;;;;;;;;;5033423;28;19908;-80
2023/06/07 05:53:13;;;;;;;;;;;;;;;;;;5051947;28;19950;-81
2023/06/07 05:55:38;;;;;;;;;;;;;;;;;;5051231;28;19912;-80
2023/06/07 05:58:03;;;;;;;;;;;;;;;;;;5051449;28;19913;-82
2023/06/07 06:00:29;;;;;;;;;;;;;;;;;;5049258;28;20291;-82
2023/06/07 06:02:54;;;;;;;;;;;;;;;;;;5050834;28;20348;-82
2023/06/07 06:05:27;;;;;;;;;;;;;;;;;;5051207;28;19990;-79
2023/06/07 06:07:52;;;;;;;;;;;;;;;;;;5050050;28;20256;-80
2023/06/07 06:10:18;;;;;;;;;;;;;;;;;;5045859;28;19916;-81
2023/06/07 06:12:43;;;;;;;;;;;;;;;;;;5050147;28;19912;-81
2023/06/07 06:15:08;;;;;;;;;;;;;;;;;;5050853;28;19915;-83
2023/06/07 06:17:33;;;;;;;;;;;;;;;;;;5051086;28;20398;-81
2023/06/07 06:19:59;;;;;;;;;;;;;;;;;;5050144;28;19913;-81
2023/06/07 06:22:25;;;;;;;;;;;;;;;;;;5051127;28;19916;-81
2023/06/07 06:24:50;;;;;;;;;;;;;;;;;;5032607;28;20399;-80
2023/06/07 06:27:16;;;;;;;;;;;;;;;;;;5049735;28;19913;-80
2023/06/07 06:29:41;;;;;;;;;;;;;;;;;;5049640;28;19952;-80
2023/06/07 06:32:07;;;;;;;;;;;;;;;;;;5066006;28;20285;-80
2023/06/07 06:34:32;;;;;;;;;;;;;;;;;;5050471;28;19978;-81
2023/06/07 06:36:57;;;;;;;;;;;;;;;;;;5049004;28;19913;-81
2023/06/07 06:39:23;;;;;;;;;;;;;;;;;;5049133;28;19909;-82
2023/06/07 06:41:49;;;;;;;;;;;;;;;;;;5050051;28;20379;-82
2023/06/07 06:44:20;;;;;;;;;;;;;;;;;;5048557;28;20372;-81
2023/06/07 06:46:45;;;;;;;;;;;;;;;;;;5049459;28;19913;-82
2023/06/07 06:49:10;;;;;;;;;;;;;;;;;;5048875;28;19931;-81
2023/06/07 06:51:36;;;;;;;;;;;;;;;;;;5048167;28;19916;-82
2023/06/07 06:54:01;;;;;;;;;;;;;;;;;;5049083;28;19909;-82
2023/06/07 06:56:26;;;;;;;;;;;;;;;;;;5050136;28;19920;-81
2023/06/07 06:58:52;;;;;;;;;;;;;;;;;;5050195;28;19908;-80
2023/06/07 07:01:18;;;;;;;;;;;;;;;;;;5050267;28;19917;-81
2023/06/07 07:03:43;;;;;;;;;;;;;;;;;;5050566;28;19908;-79
2023/06/07 07:06:08;;;;;;;;;;;;;;;;;;5033034;28;19919;-81
2023/06/07 07:08:34;;;;;;;;;;;;;;;;;;5050671;28;19913;-80
2023/06/07 07:10:59;;;;;;;;;;;;;;;;;;5049578;28;19912;-81
2023/06/07 07:13:25;;;;;;;;;;;;;;;;;;5048841;28;20386;-81
2023/06/07 07:15:50;;;;;;;;;;;;;;;;;;5032433;28;19912;-80
2023/06/07 07:18:15;;;;;;;;;;;;;;;;;;5050052;28;19978;-81
2023/06/07 07:20:41;;;;;;;;;;;;;;;;;;5049165;28;20328;-80
2023/06/07 07:23:06;;;;;;;;;;;;;;;;;;5050034;28;19909;-81
2023/06/07 07:25:31;;;;;;;;;;;;;;;;;;5048593;28;19912;-82
2023/06/07 07:27:57;;;;;;;;;;;;;;;;;;5049020;28;20351;-81
2023/06/07 07:30:22;;;;;;;;;;;;;;;;;;5048786;28;19913;-82
2023/06/07 07:32:47;;;;;;;;;;;;;;;;;;5048625;28;19909;-82
2023/06/07 07:35:13;;;;;;;;;;;;;;;;;;5031880;28;20396;-82
2023/06/07 07:37:39;;;;;;;;;;;;;;;;;;5050485;28;20268;-82
2023/06/07 07:40:05;;;;;;;;;;;;;;;;;;5048580;28;19963;-80
2023/06/07 07:42:30;;;;;;;;;;;;;;;;;;5049332;28;20727;-80
2023/06/07 07:44:56;;;;;;;;;;;;;;;;;;5050045;28;19917;-80
2023/06/07 07:47:21;;;;;;;;;;;;;;;;;;5050438;28;19954;-82
2023/06/07 07:49:47;;;;;;;;;;;;;;;;;;5049560;28;19924;-80
2023/06/07 07:52:12;;;;;;;;;;;;;;;;;;5048866;28;19931;-81
2023/06/07 07:54:37;;;;;;;;;;;;;;;;;;5049625;28;19913;-83
2023/06/07 07:57:04;;;;;;;;;;;;;;;;;;5050290;28;19923;-82
2023/06/07 07:59:29;;;;;;;;;;;;;;;;;;5049590;28;19944;-82
2023/06/07 08:01:55;;;;;;;;;;;;;;;;;;5050448;28;19974;-82
2023/06/07 08:04:21;;;;;;;;;;;;;;;;;;5051970;28;19912;-81
2023/06/07 08:06:46;;;;;;;;;;;;;;;;;;5053866;28;19916;-81
2023/06/07 08:09:11;;;;;;;;;;;;;;;;;;5052069;28;19912;-82
2023/06/07 08:11:37;;;;;;;;;;;;;;;;;;5035768;28;20357;-82
2023/06/07 08:14:02;;;;;;;;;;;;;;;;;;5053229;28;20007;-82
2023/06/07 08:16:27;;;;;;;;;;;;;;;;;;5052750;28;19908;-80
2023/06/07 08:18:53;;;;;;;;;;;;;;;;;;5053280;28;19924;-82
2023/06/07 08:21:18;;;;;;;;;;;;;;;;;;5053450;28;19952;-81
2023/06/07 08:23:44;;;;;;;;;;;;;;;;;;5051517;28;19916;-82
2023/06/07 08:26:10;;;;;;;;;;;;;;;;;;5053322;28;20421;-79
2023/06/07 08:28:35;;;;;;;;;;;;;;;;;;5053253;28;19913;-80
2023/06/07 08:31:03;;;;;;;;;;;;;;;;;;5053074;28;19951;-80
2023/06/07 08:33:28;;;;;;;;;;;;;;;;;;5051155;28;19919;-80
2023/06/07 08:35:54;;;;;;;;;;;;;;;;;;5052743;28;20305;-82
2023/06/07 08:38:19;;;;;;;;;;;;;;;;;;5067818;28;19919;-81
2023/06/07 08:40:45;;;;;;;;;;;;;;;;;;5053115;28;20288;-83
2023/06/07 08:43:10;;;;;;;;;;;;;;;;;;5052217;28;19916;-82
2023/06/07 08:45:36;;;;;;;;;;;;;;;;;;5053119;28;20319;-81
2023/06/07 08:48:05;;;;;;;;;;;;;;;;;;5052475;28;19998;-81
2023/06/07 08:50:30;;;;;;;;;;;;;;;;;;5051530;28;19909;-81
2023/06/07 08:52:55;;;;;;;;;;;;;;;;;;5050501;28;20023;-80
2023/06/07 08:55:21;;;;;;;;;;;;;;;;;;5052798;28;19970;-82
2023/06/07 08:57:51;;;;;;;;;;;;;;;;;;5064249;28;19919;-81
2023/06/07 09:00:16;;;;;;;;;;;;;;;;;;5051485;28;19909;-82
2023/06/07 09:02:41;;;;;;;;;;;;;;;;;;5050579;28;19935;-80
2023/06/07 09:05:07;;;;;;;;;;;;;;;;;;5050733;28;20011;-82
2023/06/07 09:07:32;;;;;;;;;;;;;;;;;;5052069;28;19913;-82
2023/06/07 09:09:57;;;;;;;;;;;;;;;;;;5052261;28;20007;-82
2023/06/07 09:12:23;;;;;;;;;;;;;;;;;;5051120;28;19956;-82
2023/06/07 09:14:48;;;;;;;;;;;;;;;;;;5051133;28;19956;-82
2023/06/07 09:17:13;;;;;;;;;;;;;;;;;;5052298;28;19912;-82
2023/06/07 09:19:39;;;;;;;;;;;;;;;;;;5034155;28;20395;-81
2023/06/07 09:22:04;;;;;;;;;;;;;;;;;;5050750;28;20415;-82
2023/06/07 09:24:30;;;;;;;;;;;;;;;;;;5034709;28;19909;-82
2023/06/07 09:26:55;;;;;;;;;;;;;;;;;;5051781;28;19952;-82
2023/06/07 09:29:21;;;;;;;;;;;;;;;;;;5052782;28;19908;-82
2023/06/07 09:31:46;;;;;;;;;;;;;;;;;;5052164;28;20260;-81
2023/06/07 09:34:11;;;;;;;;;;;;;;;;;;5050649;28;20302;-83
2023/06/07 09:36:37;;;;;;;;;;;;;;;;;;5047651;28;19974;-81
2023/06/07 09:39:03;;;;;;;;;;;;;;;;;;5065553;28;19909;-81
2023/06/07 09:41:28;;;;;;;;;;;;;;;;;;5050256;28;19938;-83
2023/06/07 09:43:54;;;;;;;;;;;;;;;;;;5052107;28;19913;-82
2023/06/07 09:46:19;;;;;;;;;;;;;;;;;;5051763;28;19919;-81
2023/06/07 09:48:45;;;;;;;;;;;;;;;;;;5051363;28;20375;-81
2023/06/07 09:51:10;;;;;;;;;;;;;;;;;;5051035;28;19919;-83
2023/06/07 09:53:36;;;;;;;;;;;;;;;;;;5053981;28;20059;-81
2023/06/07 09:56:01;;;;;;;;;;;;;;;;;;5050191;28;19912;-79
2023/06/07 09:58:26;;;;;;;;;;;;;;;;;;5051212;28;20291;-81
2023/06/07 10:00:55;;;;;;;;;;;;;;;;;;5066982;28;19987;-82
2023/06/07 10:03:21;;;;;;;;;;;;;;;;;;5050162;28;20008;-82
2023/06/07 10:05:46;;;;;;;;;;;;;;;;;;5051192;28;20422;-83
2023/06/07 10:08:12;;;;;;;;;;;;;;;;;;5067022;28;19951;-81
2023/06/07 10:10:37;;;;;;;;;;;;;;;;;;5049568;28;20395;-80
2023/06/07 10:13:02;;;;;;;;;;;;;;;;;;5049739;28;19952;-80
2023/06/07 10:15:29;;;;;;;;;;;;;;;;;;5049951;28;19920;-80
2023/06/07 10:17:54;;;;;;;;;;;;;;;;;;5050250;28;20031;-83
2023/06/07 10:20:20;;;;;;;;;;;;;;;;;;5050621;28;20373;-80
2023/06/07 10:22:46;;;;;;;;;;;;;;;;;;5051219;28;20360;-81
2023/06/07 10:25:11;;;;;;;;;;;;;;;;;;5049582;28;19966;-81
2023/06/07 10:27:36;;;;;;;;;;;;;;;;;;5050425;28;19913;-80
2023/06/07 10:30:02;;;;;;;;;;;;;;;;;;5066419;28;19912;-82
2023/06/07 10:32:29;;;;;;;;;;;;;;;;;;5033174;28;19931;-82
2023/06/07 10:34:54;;;;;;;;;;;;;;;;;;5050273;28;20380;-81
2023/06/07 10:37:19;;;;;;;;;;;;;;;;;;5049602;28;20003;-81
2023/06/07 10:39:46;;;;;;;;;;;;;;;;;;5049182;28;19919;-80
2023/06/07 10:42:11;;;;;;;;;;;;;;;;;;5050462;28;19959;-81
2023/06/07 10:44:37;;;;;;;;;;;;;;;;;;5048846;28;20349;-81
2023/06/07 10:47:03;;;;;;;;;;;;;;;;;;5049517;28;19955;-83
2023/06/07 10:49:28;;;;;;;;;;;;;;;;;;5048812;28;20330;-82
2023/06/07 10:51:55;;;;;;;;;;;;;;;;;;5049247;28;19948;-82
2023/06/07 10:54:21;;;;;;;;;;;;;;;;;;5049590;28;19920;-81
2023/06/07 10:56:47;;;;;;;;;;;;;;;;;;5049361;28;19909;-81
2023/06/07 10:59:12;;;;;;;;;;;;;;;;;;5050446;28;19913;-82
2023/06/07 11:01:37;;;;;;;;;;;;;;;;;;5049160;28;19966;-82
2023/06/07 11:04:03;;;;;;;;;;;;;;;;;;5050214;28;19912;-83
2023/06/07 11:06:28;;;;;;;;;;;;;;;;;;5065816;28;19915;-82
2023/06/07 11:08:53;;;;;;;;;;;;;;;;;;5048844;28;19916;-80
2023/06/07 11:11:18;;;;;;;;;;;;;;;;;;5032907;28;19909;-82
2023/06/07 11:13:47;;;;;;;;;;;;;;;;;;5051032;28;20978;-82
2023/06/07 11:16:12;;;;;;;;;;;;;;;;;;5061172;28;20006;-82
2023/06/07 11:18:37;;;;;;;;;;;;;;;;;;5049482;28;20019;-82
2023/06/07 11:21:03;;;;;;;;;;;;;;;;;;5050145;28;19913;-80
2023/06/07 11:23:28;;;;;;;;;;;;;;;;;;5048814;28;19935;-82
2023/06/07 11:25:53;;;;;;;;;;;;;;;;;;5048906;28;19909;-82
2023/06/07 11:28:19;;;;;;;;;;;;;;;;;;5049373;28;19928;-82
2023/06/07 11:30:44;;;;;;;;;;;;;;;;;;5049334;28;19943;-81
2023/06/07 11:33:10;;;;;;;;;;;;;;;;;;5050010;28;19913;-83
2023/06/07 11:35:36;;;;;;;;;;;;;;;;;;5048717;28;20356;-82
2023/06/07 11:38:01;;;;;;;;;;;;;;;;;;5051271;28;19940;-82
2023/06/07 11:40:26;;;;;;;;;;;;;;;;;;5036085;28;19913;-80
2023/06/07 11:42:52;;;;;;;;;;;;;;;;;;5054364;28;20284;-81
2023/06/07 11:45:17;;;;;;;;;;;;;;;;;;5069070;28;19967;-82
2023/06/07 11:47:42;;;;;;;;;;;;;;;;;;5051931;28;19912;-82
2023/06/07 11:50:08;;;;;;;;;;;;;;;;;;5053230;28;20007;-82
2023/06/07 11:52:33;;;;;;;;;;;;;;;;;;5053154;28;19959;-82
2023/06/07 11:54:58;;;;;;;;;;;;;;;;;;5053938;28;20041;-83
2023/06/07 11:57:29;;;;;;;;;;;;;;;;;;5053611;28;19924;-81
2023/06/07 11:59:55;;;;;;;;;;;;;;;;;;5053493;28;19917;-82
2023/06/07 12:02:21;;;;;;;;;;;;;;;;;;5053608;28;19920;-81
2023/06/07 12:04:47;;;;;;;;;;;;;;;;;;5052665;28;20387;-83
2023/06/07 12:07:12;;;;;;;;;;;;;;;;;;5053024;28;19999;-80
2023/06/07 12:09:37;;;;;;;;;;;;;;;;;;5052620;28;19920;-81
2023/06/07 12:12:03;;;;;;;;;;;;;;;;;;5053936;28;20391;-79
2023/06/07 12:14:29;;;;;;;;;;;;;;;;;;5053609;28;19913;-83
2023/06/07 12:16:54;;;;;;;;;;;;;;;;;;5052118;28;20231;-81
2023/06/07 12:19:19;;;;;;;;;;;;;;;;;;5053189;28;19947;-81
2023/06/07 12:21:44;;;;;;;;;;;;;;;;;;5052712;28;19974;-81
2023/06/07 12:24:10;;;;;;;;;;;;;;;;;;5053106;28;19919;-81
2023/06/07 12:26:36;;;;;;;;;;;;;;;;;;5052573;28;19909;-81
2023/06/07 12:29:02;;;;;;;;;;;;;;;;;;5052923;28;20341;-81
2023/06/07 12:31:27;;;;;;;;;;;;;;;;;;5053088;28;19909;-83
2023/06/07 12:33:54;;;;;;;;;;;;;;;;;;5052964;28;19958;-80
2023/06/07 12:36:19;;;;;;;;;;;;;;;;;;5068528;28;20351;-81
2023/06/07 12:38:44;;;;;;;;;;;;;;;;;;5052953;28;19917;-82
2023/06/07 12:41:09;;;;;;;;;;;;;;;;;;5051630;28;20015;-80
2023/06/07 12:43:35;;;;;;;;;;;;;;;;;;5051546;28;19920;-83
2023/06/07 12:46:00;;;;;;;;;;;;;;;;;;5051579;28;20376;-84
2023/06/07 12:48:26;;;;;;;;;;;;;;;;;;5052674;28;20004;-83
2023/06/07 12:50:51;;;;;;;;;;;;;;;;;;5053077;28;20388;-83
2023/06/07 12:53:16;;;;;;;;;;;;;;;;;;5052555;28;19913;-82
2023/06/07 12:55:42;;;;;;;;;;;;;;;;;;5067993;28;19995;-81
2023/06/07 12:58:09;;;;;;;;;;;;;;;;;;5065332;28;19920;-81
2023/06/07 13:00:35;;;;;;;;;;;;;;;;;;5052442;28;20304;-82
2023/06/07 13:03:00;;;;;;;;;;;;;;;;;;5051355;28;20030;-80
2023/06/07 13:05:25;;;;;;;;;;;;;;;;;;5034684;28;19999;-82
2023/06/07 13:07:51;;;;;;;;;;;;;;;;;;5062737;28;19920;-82
2023/06/07 13:10:17;;;;;;;;;;;;;;;;;;5045255;28;19909;-82
2023/06/07 13:12:43;;;;;;;;;;;;;;;;;;5052363;28;19912;-82
2023/06/07 13:15:09;;;;;;;;;;;;;;;;;;5052104;28;19931;-82
2023/06/07 13:17:34;;;;;;;;;;;;;;;;;;5066450;28;20375;-82
2023/06/07 13:20:00;;;;;;;;;;;;;;;;;;5051840;28;19919;-82
2023/06/07 13:22:25;;;;;;;;;;;;;;;;;;5050783;28;19963;-82
2023/06/07 13:24:50;;;;;;;;;;;;;;;;;;5051962;28;19952;-81
2023/06/07 13:27:16;;;;;;;;;;;;;;;;;;5051970;28;19920;-82
2023/06/07 13:29:41;;;;;;;;;;;;;;;;;;5050972;28;19909;-80
2023/06/07 13:32:07;;;;;;;;;;;;;;;;;;5051225;28;19913;-80
2023/06/07 13:34:32;;;;;;;;;;;;;;;;;;5051604;28;19909;-80
2023/06/07 13:36:57;;;;;;;;;;;;;;;;;;5071609;28;20011;-82
2023/06/07 13:39:22;;;;;;;;;;;;;;;;;;5056757;28;20355;-83
2023/06/07 13:41:48;;;;;;;;;;;;;;;;;;5064617;28;19924;-81
2023/06/07 13:44:13;;;;;;;;;;;;;;;;;;5051696;28;19969;-80
2023/06/07 13:46:38;;;;;;;;;;;;;;;;;;5050087;28;20403;-82
2023/06/07 13:49:04;;;;;;;;;;;;;;;;;;5051433;28;19912;-81
2023/06/07 13:51:30;;;;;;;;;;;;;;;;;;5051344;28;19913;-80
2023/06/07 13:53:56;;;;;;;;;;;;;;;;;;5061036;28;19920;-80
2023/06/07 13:56:22;;;;;;;;;;;;;;;;;;5066701;28;19919;-81
2023/06/07 13:58:47;;;;;;;;;;;;;;;;;;5051015;28;20003;-80
2023/06/07 14:01:13;;;;;;;;;;;;;;;;;;5051892;28;19916;-81
2023/06/07 14:03:39;;;;;;;;;;;;;;;;;;5051942;28;19909;-80
2023/06/07 14:06:04;;;;;;;;;;;;;;;;;;5050997;28;19939;-80
2023/06/07 14:08:29;;;;;;;;;;;;;;;;;;5051122;28;19919;-80
2023/06/07 14:10:55;;;;;;;;;;;;;;;;;;5047299;28;19917;-82
2023/06/07 14:13:21;;;;;;;;;;;;;;;;;;5043739;28;20012;-82
2023/06/07 14:15:46;;;;;;;;;;;;;;;;;;5050866;28;19913;-81
2023/06/07 14:18:11;;;;;;;;;;;;;;;;;;5051210;28;20410;-82
2023/06/07 14:20:37;;;;;;;;;;;;;;;;;;5049726;28;19917;-80
2023/06/07 14:23:02;;;;;;;;;;;;;;;;;;5050939;28;19990;-80
2023/06/07 14:25:27;;;;;;;;;;;;;;;;;;5050628;28;19956;-83
2023/06/07 14:27:53;;;;;;;;;;;;;;;;;;5051036;28;19909;-81
2023/06/07 14:30:18;;;;;;;;;;;;;;;;;;5050385;28;20011;-80
2023/06/07 14:32:43;;;;;;;;;;;;;;;;;;5050684;28;19909;-83
2023/06/07 14:35:09;;;;;;;;;;;;;;;;;;5050976;28;19970;-82
2023/06/07 14:37:34;;;;;;;;;;;;;;;;;;5050624;28;19919;-82
2023/06/07 14:40:00;;;;;;;;;;;;;;;;;;5049141;28;20003;-82
2023/06/07 14:42:25;;;;;;;;;;;;;;;;;;5049318;28;19917;-82
2023/06/07 14:44:51;;;;;;;;;;;;;;;;;;5051370;28;20324;-82
2023/06/07 14:47:16;;;;;;;;;;;;;;;;;;5050635;28;20011;-81
2023/06/07 14:49:41;;;;;;;;;;;;;;;;;;5052657;28;19913;-80
2023/06/07 14:52:07;;;;;;;;;;;;;;;;;;5058351;28;19915;-81
2023/06/07 14:54:32;;;;;;;;;;;;;;;;;;5050397;28;19948;-81
2023/06/07 14:56:57;;;;;;;;;;;;;;;;;;5050202;28;19909;-83
2023/06/07 14:59:23;;;;;;;;;;;;;;;;;;5050079;28;19921;-82
2023/06/07 15:01:48;;;;;;;;;;;;;;;;;;5050206;28;19912;-83
2023/06/07 15:04:14;;;;;;;;;;;;;;;;;;5050180;28;20415;-83
2023/06/07 15:06:40;;;;;;;;;;;;;;;;;;5050428;28;20313;-81
2023/06/07 15:09:05;;;;;;;;;;;;;;;;;;5031302;28;19913;-82
2023/06/07 15:11:30;;;;;;;;;;;;;;;;;;5050290;28;20360;-82
2023/06/07 15:13:56;;;;;;;;;;;;;;;;;;5035991;28;19987;-82
2023/06/07 15:16:21;;;;;;;;;;;;;;;;;;5055040;28;19908;-82
2023/06/07 15:18:46;;;;;;;;;;;;;;;;;;5053101;28;19929;-81
2023/06/07 15:21:11;;;;;;;;;;;;;;;;;;5054460;28;20007;-81
2023/06/07 15:23:37;;;;;;;;;;;;;;;;;;5053395;28;19912;-82
2023/06/07 15:26:02;;;;;;;;;;;;;;;;;;5054088;28;19908;-81
2023/06/07 15:28:27;;;;;;;;;;;;;;;;;;5054387;28;19913;-82
2023/06/07 15:30:53;;;;;;;;;;;;;;;;;;5060177;28;19909;-81
2023/06/07 15:33:18;;;;;;;;;;;;;;;;;;5057170;28;19963;-81
2023/06/07 15:35:43;;;;;;;;;;;;;;;;;;5054444;28;20014;-81
2023/06/07 15:38:09;;;;;;;;;;;;;;;;;;5055235;28;20816;-81
2023/06/07 15:40:34;;;;;;;;;;;;;;;;;;5054825;28;19952;-81
2023/06/07 15:42:59;;;;;;;;;;;;;;;;;;5051950;28;19916;-81
2023/06/07 15:45:25;;;;;;;;;;;;;;;;;;5036025;28;19909;-80
2023/06/07 15:47:50;;;;;;;;;;;;;;;;;;5052329;28;19921;-82
2023/06/07 15:50:16;;;;;;;;;;;;;;;;;;5052649;28;19916;-81
2023/06/07 15:52:41;;;;;;;;;;;;;;;;;;5052592;28;20440;-80
2023/06/07 15:55:06;;;;;;;;;;;;;;;;;;5062594;28;19932;-79
2023/06/07 15:57:32;;;;;;;;;;;;;;;;;;5054475;28;19998;-82
2023/06/07 15:59:57;;;;;;;;;;;;;;;;;;5068139;28;19908;-82
2023/06/07 16:02:23;;;;;;;;;;;;;;;;;;5053562;28;19917;-81
2023/06/07 16:04:48;;;;;;;;;;;;;;;;;;5069246;28;20346;-82
2023/06/07 16:07:13;;;;;;;;;;;;;;;;;;5052837;28;19924;-82
2023/06/07 16:09:39;;;;;;;;;;;;;;;;;;5053319;28;19909;-82
2023/06/07 16:12:05;;;;;;;;;;;;;;;;;;5053140;28;20306;-80
2023/06/07 16:14:30;;;;;;;;;;;;;;;;;;5053642;28;20338;-82
2023/06/07 16:16:56;;;;;;;;;;;;;;;;;;5053066;28;19964;-82
2023/06/07 16:19:21;;;;;;;;;;;;;;;;;;5052854;28;19925;-82
2023/06/07 16:21:46;;;;;;;;;;;;;;;;;;5035060;28;20298;-82
2023/06/07 16:24:12;;;;;;;;;;;;;;;;;;5052725;28;19916;-82
2023/06/07 16:26:37;;;;;;;;;;;;;;;;;;5052595;28;20395;-81
2023/06/07 16:29:03;;;;;;;;;;;;;;;;;;5053359;28;20403;-81
2023/06/07 16:31:30;;;;;;;;;;;;;;;;;;5051414;28;19912;-81
2023/06/07 16:33:55;;;;;;;;;;;;;;;;;;5051879;28;19962;-82
2023/06/07 16:36:21;;;;;;;;;;;;;;;;;;5051191;28;19917;-81